createdAt,value
2023-04-24T00:01:04.260Z,11.16
2023-04-24T00:03:36.383Z,11.17
2023-04-24T00:06:07.951Z,11.13
2023-04-24T00:08:39.573Z,11.13
2023-04-24T00:11:11.021Z,11.11
2023-04-24T00:13:42.788Z,11.10
2023-04-24T00:16:14.268Z,11.05
2023-04-24T00:18:46.104Z,11.04
2023-04-24T00:21:17.554Z,11.00
2023-04-24T00:23:49.541Z,10.97
2023-04-24T00:26:20.980Z,10.92
2023-04-24T00:28:52.734Z,10.88
2023-04-24T00:31:24.273Z,10.86
2023-04-24T00:33:56.183Z,10.82
2023-04-24T00:36:27.671Z,10.81
2023-04-24T00:38:59.502Z,10.77
2023-04-24T00:41:30.959Z,10.77
2023-04-24T00:44:02.422Z,10.76
2023-04-24T00:46:33.963Z,10.74
2023-04-24T00:49:05.954Z,10.76
2023-04-24T00:51:37.431Z,10.80
2023-04-24T00:54:08.913Z,10.73
2023-04-24T00:56:40.359Z,10.73
2023-04-24T00:59:12.188Z,10.62
2023-04-24T01:01:43.692Z,10.62
2023-04-24T01:04:15.346Z,10.70
2023-04-24T01:06:46.906Z,10.71
2023-04-24T01:09:18.764Z,10.76
2023-04-24T01:11:50.289Z,10.73
2023-04-24T01:14:22.156Z,10.77
2023-04-24T01:16:53.683Z,10.79
2023-04-24T01:19:25.624Z,10.77
2023-04-24T01:21:57.068Z,10.78
2023-04-24T01:24:28.807Z,10.76
2023-04-24T01:27:00.253Z,10.77
2023-04-24T01:29:32.045Z,10.74
2023-04-24T01:32:03.478Z,10.74
2023-04-24T01:34:35.298Z,10.74
2023-04-24T01:37:07.280Z,10.76
2023-04-24T01:39:38.721Z,10.78
2023-04-24T01:42:10.464Z,10.71
2023-04-24T01:44:41.943Z,10.68
2023-04-24T01:47:13.559Z,10.72
2023-04-24T01:49:45.296Z,10.67
2023-04-24T01:52:17.324Z,10.74
2023-04-24T01:54:48.784Z,10.71
2023-04-24T01:57:20.636Z,10.69
2023-04-24T01:59:52.087Z,10.70
2023-04-24T02:02:24.095Z,10.74
2023-04-24T02:04:55.722Z,10.69
2023-04-24T02:07:27.537Z,10.64
2023-04-24T02:09:59.019Z,10.70
2023-04-24T02:12:30.746Z,10.75
2023-04-24T02:15:02.223Z,10.79
2023-04-24T02:17:34.209Z,10.78
2023-04-24T02:20:05.767Z,10.81
2023-04-24T02:22:37.602Z,10.85
2023-04-24T02:25:09.162Z,10.79
2023-04-24T02:27:40.721Z,10.81
2023-04-24T02:30:12.164Z,10.82
2023-04-24T02:32:44.017Z,10.83
2023-04-24T02:35:15.526Z,10.79
2023-04-24T02:37:47.454Z,10.80
2023-04-24T02:40:18.971Z,10.78
2023-04-24T02:42:50.444Z,10.75
2023-04-24T02:45:21.897Z,10.78
2023-04-24T02:47:53.434Z,10.76
2023-04-24T02:50:24.934Z,10.82
2023-04-24T02:52:56.405Z,10.77
2023-04-24T02:55:27.908Z,10.79
2023-04-24T02:57:59.389Z,10.84
2023-04-24T03:00:30.830Z,10.85
2023-04-24T03:03:02.825Z,10.88
2023-04-24T03:05:34.455Z,10.86
2023-04-24T03:08:06.581Z,10.88
2023-04-24T03:10:38.037Z,10.89
2023-04-24T03:13:09.490Z,10.90
2023-04-24T03:15:40.939Z,10.90
2023-04-24T03:18:12.784Z,10.90
2023-04-24T03:20:44.295Z,10.95
2023-04-24T03:23:15.866Z,10.96
2023-04-24T03:25:47.341Z,10.99
2023-04-24T03:28:18.807Z,11.01
2023-04-24T03:30:50.277Z,11.03
2023-04-24T03:33:22.011Z,11.05
2023-04-24T03:35:53.490Z,11.04
2023-04-24T03:38:25.244Z,11.08
2023-04-24T03:40:56.699Z,11.04
2023-04-24T03:43:28.576Z,11.07
2023-04-24T03:46:00.075Z,11.09
2023-04-24T03:48:31.561Z,11.12
2023-04-24T03:51:03.034Z,11.14
2023-04-24T03:53:34.541Z,11.14
2023-04-24T03:56:06.009Z,11.17
2023-04-24T03:58:37.462Z,11.13
2023-04-24T04:01:09.001Z,11.16
2023-04-24T04:03:40.722Z,11.18
2023-04-24T04:06:12.385Z,11.14
2023-04-24T04:08:43.888Z,11.21
2023-04-24T04:11:16.032Z,11.24
2023-04-24T04:13:47.541Z,11.23
2023-04-24T04:16:19.272Z,11.26
2023-04-24T04:18:50.807Z,11.30
2023-04-24T04:21:22.671Z,11.32
2023-04-24T04:23:54.152Z,11.36
2023-04-24T04:26:26.202Z,11.38
2023-04-24T04:28:57.666Z,11.41
2023-04-24T04:31:29.592Z,11.46
2023-04-24T04:34:01.083Z,11.51
2023-04-24T04:36:32.566Z,11.55
2023-04-24T04:39:04.070Z,11.51
2023-04-24T04:41:35.876Z,11.57
2023-04-24T04:44:07.662Z,11.62
2023-04-24T04:46:39.156Z,11.66
2023-04-24T04:49:10.988Z,11.71
2023-04-24T04:51:43.195Z,11.72
2023-04-24T04:54:14.999Z,11.81
2023-04-24T04:56:46.452Z,11.82
2023-04-24T04:59:17.943Z,11.89
2023-04-24T05:01:49.414Z,11.97
2023-04-24T05:04:21.283Z,12.02
2023-04-24T05:06:52.816Z,12.14
2023-04-24T05:09:24.316Z,12.03
2023-04-24T05:11:55.774Z,12.11
2023-04-24T05:14:27.278Z,12.14
2023-04-24T05:16:58.807Z,12.29
2023-04-24T05:19:30.549Z,12.34
2023-04-24T05:22:02.037Z,12.26
2023-04-24T05:24:33.805Z,12.28
2023-04-24T05:27:05.303Z,12.38
2023-04-24T05:29:37.020Z,12.45
2023-04-24T05:32:08.520Z,12.43
2023-04-24T05:34:40.212Z,12.47
2023-04-24T05:37:11.672Z,12.60
2023-04-24T05:39:43.598Z,12.75
2023-04-24T05:42:15.348Z,12.81
2023-04-24T05:44:47.168Z,12.79
2023-04-24T05:47:18.703Z,12.98
2023-04-24T05:49:50.259Z,12.99
2023-04-24T05:52:21.728Z,12.93
2023-04-24T05:54:53.195Z,12.91
2023-04-24T05:57:24.669Z,13.06
2023-04-24T05:59:56.142Z,13.18
2023-04-24T06:02:27.795Z,13.50
2023-04-24T06:04:59.781Z,13.36
2023-04-24T06:07:31.437Z,13.25
2023-04-24T06:10:03.330Z,13.60
2023-04-24T06:12:34.822Z,13.57
2023-04-24T06:15:06.785Z,13.56
2023-04-24T06:17:38.289Z,13.59
2023-04-24T06:20:09.813Z,13.84
2023-04-24T06:22:41.247Z,13.49
2023-04-24T06:25:13.200Z,13.57
2023-04-24T06:27:44.746Z,13.79
2023-04-24T06:30:16.597Z,14.15
2023-04-24T06:32:48.110Z,14.51
2023-04-24T06:35:19.956Z,14.96
2023-04-24T06:37:51.461Z,15.34
2023-04-24T06:40:23.262Z,15.29
2023-04-24T06:42:54.714Z,14.92
2023-04-24T06:45:26.543Z,15.19
2023-04-24T06:47:58.092Z,15.41
2023-04-24T06:50:29.567Z,15.26
2023-04-24T06:53:01.041Z,16.06
2023-04-24T06:55:32.574Z,16.77
2023-04-24T06:58:04.009Z,16.79
2023-04-24T07:00:35.781Z,16.99
2023-04-24T07:03:07.413Z,16.96
2023-04-24T07:05:39.378Z,17.55
2023-04-24T07:08:10.838Z,17.87
2023-04-24T07:10:42.286Z,16.77
2023-04-24T07:13:13.752Z,16.51
2023-04-24T07:15:45.574Z,16.41
2023-04-24T07:18:17.249Z,16.48
2023-04-24T07:20:49.020Z,16.80
2023-04-24T07:23:20.464Z,16.48
2023-04-24T07:25:51.929Z,16.73
2023-04-24T07:28:23.379Z,16.90
2023-04-24T07:30:54.932Z,16.44
2023-04-24T07:33:26.523Z,16.68
2023-04-24T07:35:58.273Z,16.91
2023-04-24T07:38:29.716Z,16.98
2023-04-24T07:41:01.460Z,16.61
2023-04-24T07:43:32.904Z,16.64
2023-04-24T07:46:06.049Z,16.16
2023-04-24T07:48:38.555Z,16.09
2023-04-24T07:51:10.272Z,16.72
2023-04-24T07:53:41.713Z,16.32
2023-04-24T07:56:13.173Z,16.73
2023-04-24T07:58:44.611Z,17.21
2023-04-24T08:01:16.375Z,17.54
2023-04-24T08:03:48.001Z,18.35
2023-04-24T08:06:19.958Z,17.24
2023-04-24T08:08:51.425Z,17.83
2023-04-24T08:11:24.851Z,17.58
2023-04-24T08:13:56.450Z,17.30
2023-04-24T08:16:28.295Z,17.59
2023-04-24T08:18:59.756Z,17.92
2023-04-24T08:21:31.577Z,18.07
2023-04-24T08:24:03.022Z,17.91
2023-04-24T08:26:34.781Z,18.01
2023-04-24T08:29:06.230Z,18.70
2023-04-24T08:31:38.148Z,18.64
2023-04-24T08:34:09.643Z,18.37
2023-04-24T08:36:46.940Z,18.77
2023-04-24T08:39:19.089Z,17.80
2023-04-24T08:41:50.524Z,18.85
2023-04-24T08:44:22.363Z,18.92
2023-04-24T08:46:53.854Z,18.62
2023-04-24T08:49:25.507Z,19.67
2023-04-24T08:51:56.944Z,19.18
2023-04-24T08:54:28.826Z,19.04
2023-04-24T08:57:00.283Z,17.53
2023-04-24T08:59:32.093Z,17.95
2023-04-24T09:02:03.602Z,18.04
2023-04-24T09:04:35.301Z,18.44
2023-04-24T09:07:06.957Z,18.11
2023-04-24T09:09:38.435Z,17.64
2023-04-24T09:12:09.876Z,17.74
2023-04-24T09:14:41.319Z,17.44
2023-04-24T09:17:12.822Z,17.85
2023-04-24T09:19:44.953Z,18.51
2023-04-24T09:22:16.570Z,18.03
2023-04-24T09:24:48.338Z,18.26
2023-04-24T09:27:19.798Z,18.26
2023-04-24T09:29:51.301Z,18.75
2023-04-24T09:32:23.217Z,18.11
2023-04-24T09:34:54.950Z,18.32
2023-04-24T09:37:26.385Z,18.14
2023-04-24T09:39:58.189Z,17.98
2023-04-24T09:42:29.639Z,18.25
2023-04-24T09:45:12.113Z,18.22
2023-04-24T09:47:46.533Z,18.27
2023-04-24T09:50:18.884Z,17.82
2023-04-24T09:52:52.116Z,17.93
2023-04-24T09:55:23.897Z,18.40
2023-04-24T09:57:55.369Z,19.25
2023-04-24T10:00:27.242Z,19.34
2023-04-24T10:02:58.788Z,19.47
2023-04-24T10:05:30.724Z,19.54
2023-04-24T10:08:02.177Z,20.42
2023-04-24T10:10:34.121Z,19.23
2023-04-24T10:13:05.589Z,19.16
2023-04-24T10:15:37.054Z,18.84
2023-04-24T10:18:08.606Z,19.36
2023-04-24T10:20:40.465Z,18.94
2023-04-24T10:23:11.941Z,19.06
2023-04-24T10:25:43.852Z,18.96
2023-04-24T10:28:15.384Z,18.54
2023-04-24T10:30:47.380Z,18.03
2023-04-24T10:33:18.844Z,17.86
2023-04-24T10:35:50.303Z,17.32
2023-04-24T10:38:21.786Z,17.05
2023-04-24T10:40:53.250Z,16.77
2023-04-24T10:43:24.722Z,16.82
2023-04-24T10:45:56.178Z,16.81
2023-04-24T10:48:27.626Z,16.89
2023-04-24T10:50:59.083Z,17.42
2023-04-24T10:53:30.570Z,17.69
2023-04-24T10:56:02.387Z,18.39
2023-04-24T10:58:33.823Z,19.76
2023-04-24T11:01:05.661Z,20.45
2023-04-24T11:03:38.343Z,20.97
2023-04-24T11:06:10.164Z,21.05
2023-04-24T11:08:41.622Z,20.44
2023-04-24T11:11:13.153Z,19.39
2023-04-24T11:13:44.622Z,19.08
2023-04-24T11:16:16.504Z,18.78
2023-04-24T11:18:48.007Z,18.16
2023-04-24T11:21:19.810Z,17.34
2023-04-24T11:23:51.259Z,15.98
2023-04-24T11:26:23.045Z,14.60
2023-04-24T11:28:54.541Z,15.08
2023-04-24T11:31:26.270Z,15.35
2023-04-24T11:33:57.745Z,15.96
2023-04-24T11:36:29.615Z,17.48
2023-04-24T11:39:01.060Z,18.02
2023-04-24T11:41:32.868Z,18.24
2023-04-24T11:44:04.347Z,18.87
2023-04-24T11:46:36.148Z,18.32
2023-04-24T11:49:07.947Z,19.21
2023-04-24T11:51:51.357Z,18.67
2023-04-24T11:54:25.086Z,18.15
2023-04-24T11:56:56.540Z,18.07
2023-04-24T11:59:28.235Z,17.92
2023-04-24T12:01:59.711Z,19.30
2023-04-24T12:04:34.059Z,18.21
2023-04-24T12:07:06.793Z,18.79
2023-04-24T12:09:38.284Z,18.22
2023-04-24T12:12:11.257Z,18.64
2023-04-24T12:14:44.535Z,18.77
2023-04-24T12:17:15.997Z,18.58
2023-04-24T12:19:47.799Z,19.33
2023-04-24T12:22:19.265Z,18.95
2023-04-24T12:24:50.807Z,18.49
2023-04-24T12:27:22.279Z,17.92
2023-04-24T12:29:53.761Z,16.80
2023-04-24T12:32:26.428Z,17.87
2023-04-24T12:34:59.597Z,17.93
2023-04-24T12:37:31.042Z,18.18
2023-04-24T12:40:02.723Z,17.90
2023-04-24T12:42:34.206Z,17.99
2023-04-24T12:45:05.918Z,18.11
2023-04-24T12:47:37.418Z,18.18
2023-04-24T12:50:08.928Z,18.17
2023-04-24T12:52:40.423Z,18.65
2023-04-24T12:55:12.299Z,19.20
2023-04-24T12:57:43.811Z,20.02
2023-04-24T13:00:16.050Z,19.94
2023-04-24T13:02:49.179Z,19.15
2023-04-24T13:05:21.988Z,19.07
2023-04-24T13:07:54.433Z,19.33
2023-04-24T13:10:26.016Z,18.88
2023-04-24T13:12:57.549Z,18.42
2023-04-24T13:15:29.234Z,18.49
2023-04-24T13:18:00.756Z,18.46
2023-04-24T13:20:32.367Z,18.66
2023-04-24T13:23:03.898Z,19.40
2023-04-24T13:25:35.794Z,19.60
2023-04-24T13:28:07.243Z,20.24
2023-04-24T13:30:38.719Z,20.41
2023-04-24T13:33:10.217Z,20.08
2023-04-24T13:35:41.900Z,19.85
2023-04-24T13:38:13.344Z,20.37
2023-04-24T13:40:45.159Z,20.73
2023-04-24T13:43:16.593Z,21.14
2023-04-24T13:45:48.461Z,20.62
2023-04-24T13:48:19.912Z,20.82
2023-04-24T13:50:51.403Z,19.61
2023-04-24T13:53:22.866Z,18.91
2023-04-24T13:55:54.317Z,18.15
2023-04-24T13:58:25.794Z,18.16
2023-04-24T14:00:57.330Z,18.83
2023-04-24T14:03:28.981Z,19.43
2023-04-24T14:06:00.865Z,19.56
2023-04-24T14:08:32.314Z,18.98
2023-04-24T14:11:04.635Z,18.20
2023-04-24T14:13:36.191Z,19.31
2023-04-24T14:16:07.678Z,19.04
2023-04-24T14:18:39.191Z,18.71
2023-04-24T14:21:11.007Z,18.24
2023-04-24T14:23:42.949Z,19.16
2023-04-24T14:26:15.027Z,19.63
2023-04-24T14:28:46.599Z,19.57
2023-04-24T14:31:18.416Z,19.57
2023-04-24T14:33:49.887Z,20.19
2023-04-24T14:36:21.691Z,20.35
2023-04-24T14:38:53.170Z,20.59
2023-04-24T14:41:24.825Z,19.99
2023-04-24T14:43:56.373Z,19.74
2023-04-24T14:46:27.880Z,20.13
2023-04-24T14:48:59.356Z,18.91
2023-04-24T14:51:31.224Z,18.69
2023-04-24T14:54:02.693Z,18.23
2023-04-24T14:56:34.201Z,17.11
2023-04-24T14:59:05.698Z,17.87
2023-04-24T15:01:37.524Z,17.48
2023-04-24T15:04:09.063Z,17.37
2023-04-24T15:06:40.955Z,17.18
2023-04-24T15:09:12.424Z,17.68
2023-04-24T15:11:44.216Z,18.38
2023-04-24T15:14:15.670Z,19.16
2023-04-24T15:16:47.414Z,18.94
2023-04-24T15:19:18.877Z,18.45
2023-04-24T15:21:50.338Z,18.95
2023-04-24T15:24:21.799Z,18.34
2023-04-24T15:26:53.249Z,17.64
2023-04-24T15:29:24.691Z,16.94
2023-04-24T15:31:56.188Z,16.50
2023-04-24T15:34:27.756Z,16.82
2023-04-24T15:36:59.218Z,16.31
2023-04-24T15:39:31.117Z,16.38
2023-04-24T15:42:02.562Z,16.23
2023-04-24T15:44:34.018Z,16.19
2023-04-24T15:47:05.509Z,16.34
2023-04-24T15:49:37.117Z,16.22
2023-04-24T15:52:08.556Z,16.70
2023-04-24T15:54:40.016Z,16.72
2023-04-24T15:57:11.463Z,16.44
2023-04-24T15:59:43.245Z,16.35
2023-04-24T16:02:14.838Z,16.20
2023-04-24T16:04:46.771Z,16.26
2023-04-24T16:07:18.390Z,16.31
2023-04-24T16:09:49.867Z,16.21
2023-04-24T16:12:21.329Z,15.96
2023-04-24T16:14:52.873Z,15.81
2023-04-24T16:17:24.330Z,15.57
2023-04-24T16:19:55.950Z,15.57
2023-04-24T16:22:27.521Z,15.53
2023-04-24T16:24:59.429Z,15.50
2023-04-24T16:27:30.893Z,15.41
2023-04-24T16:30:02.880Z,15.38
2023-04-24T16:32:34.486Z,15.26
2023-04-24T16:35:06.392Z,15.35
2023-04-24T16:37:37.847Z,15.59
2023-04-24T16:40:09.517Z,15.72
2023-04-24T16:42:41.011Z,15.58
2023-04-24T16:45:12.798Z,15.17
2023-04-24T16:47:44.285Z,14.60
2023-04-24T16:50:16.074Z,14.34
2023-04-24T16:52:47.609Z,14.12
2023-04-24T16:55:19.132Z,14.14
2023-04-24T16:57:50.606Z,13.79
2023-04-24T17:00:22.064Z,13.85
2023-04-24T17:02:53.646Z,13.67
2023-04-24T17:05:25.192Z,13.53
2023-04-24T17:07:56.650Z,13.54
2023-04-24T17:10:28.124Z,13.43
2023-04-24T17:12:59.595Z,13.41
2023-04-24T17:15:31.349Z,13.58
2023-04-24T17:18:02.962Z,13.41
2023-04-24T17:20:34.789Z,13.37
2023-04-24T17:23:06.313Z,13.22
2023-04-24T17:25:38.066Z,13.32
2023-04-24T17:28:09.513Z,12.97
2023-04-24T17:30:41.396Z,12.98
2023-04-24T17:33:12.916Z,12.82
2023-04-24T17:35:44.425Z,12.69
2023-04-24T17:38:15.881Z,12.74
2023-04-24T17:40:47.999Z,12.89
2023-04-24T17:43:19.455Z,13.06
2023-04-24T17:45:51.107Z,13.02
2023-04-24T17:48:22.647Z,12.83
2023-04-24T17:50:54.653Z,12.37
2023-04-24T17:53:26.145Z,12.25
2023-04-24T17:55:57.961Z,12.10
2023-04-24T17:58:29.404Z,12.04
2023-04-24T18:01:01.021Z,11.87
2023-04-24T18:03:32.679Z,11.74
2023-04-24T18:06:04.269Z,11.77
2023-04-24T18:08:35.711Z,11.62
2023-04-24T18:11:07.562Z,11.74
2023-04-24T18:13:39.010Z,11.58
2023-04-24T18:16:10.495Z,11.52
2023-04-24T18:18:42.045Z,11.63
2023-04-24T18:21:13.844Z,11.58
2023-04-24T18:23:45.290Z,11.51
2023-04-24T18:26:16.955Z,11.44
2023-04-24T18:28:48.737Z,11.43
2023-04-24T18:31:20.948Z,11.44
2023-04-24T18:33:52.452Z,11.34
2023-04-24T18:36:23.933Z,11.33
2023-04-24T18:38:55.404Z,11.10
2023-04-24T18:41:26.882Z,11.13
2023-04-24T18:43:58.463Z,10.79
2023-04-24T18:46:29.990Z,10.89
2023-04-24T18:49:01.860Z,10.73
2023-04-24T18:51:40.347Z,10.66
2023-04-24T18:54:18.627Z,10.60
2023-04-24T18:56:50.111Z,10.46
2023-04-24T18:59:21.604Z,10.47
2023-04-24T19:01:53.224Z,10.58
2023-04-24T19:04:25.160Z,10.39
2023-04-24T19:06:56.754Z,10.24
2023-04-24T19:09:28.253Z,10.32
2023-04-24T19:11:59.702Z,10.35
2023-04-24T19:14:33.193Z,10.24
2023-04-24T19:17:04.654Z,10.16
2023-04-24T19:19:36.185Z,10.14
2023-04-24T19:22:07.811Z,9.98
2023-04-24T19:24:39.597Z,10.06
2023-04-24T19:27:11.087Z,9.93
2023-04-24T19:29:42.618Z,9.90
2023-04-24T19:32:14.105Z,9.87
2023-04-24T19:34:45.576Z,10.06
2023-04-24T19:37:17.039Z,10.03
2023-04-24T19:39:48.524Z,10.05
2023-04-24T19:42:28.337Z,10.09
2023-04-24T19:45:03.664Z,10.12
2023-04-24T19:47:35.103Z,9.99
2023-04-24T19:50:06.894Z,10.06
2023-04-24T19:52:38.330Z,9.95
2023-04-24T19:55:09.972Z,9.99
2023-04-24T19:57:41.497Z,9.87
2023-04-24T20:00:13.325Z,9.77
2023-04-24T20:02:44.936Z,9.72
2023-04-24T20:05:16.906Z,9.72
2023-04-24T20:07:48.442Z,9.68
2023-04-24T20:10:20.078Z,9.68
2023-04-24T20:12:51.597Z,9.66
2023-04-24T20:15:23.246Z,9.58
2023-04-24T20:17:54.682Z,9.54
2023-04-24T20:20:26.588Z,9.42
2023-04-24T20:22:58.060Z,9.45
2023-04-24T20:25:29.684Z,9.42
2023-04-24T20:28:01.147Z,9.42
2023-04-24T20:30:32.770Z,9.42
2023-04-24T20:33:04.266Z,9.34
2023-04-24T20:35:36.085Z,9.37
2023-04-24T20:38:07.515Z,9.30
2023-04-24T20:40:50.162Z,9.28
2023-04-24T20:43:29.113Z,9.17
2023-04-24T20:46:01.168Z,9.15
2023-04-24T20:48:32.638Z,9.05
2023-04-24T20:51:04.340Z,8.98
2023-04-24T20:53:35.787Z,9.00
2023-04-24T20:56:07.256Z,8.97
2023-04-24T20:58:39.039Z,8.95
2023-04-24T21:01:10.536Z,8.90
2023-04-24T21:03:42.348Z,8.82
2023-04-24T21:06:13.906Z,8.87
2023-04-24T21:08:45.656Z,8.90
2023-04-24T21:11:17.101Z,8.03
2023-04-24T21:13:49.049Z,8.90
2023-04-24T21:16:20.719Z,8.73
2023-04-24T21:18:52.225Z,8.80
2023-04-24T21:21:23.822Z,8.73
2023-04-24T21:23:55.291Z,8.78
2023-04-24T21:26:26.724Z,8.81
2023-04-24T21:28:58.497Z,8.75
2023-04-24T21:31:29.968Z,8.77
2023-04-24T21:34:01.788Z,8.76
2023-04-24T21:36:33.248Z,8.86
2023-04-24T21:41:54.114Z,8.88
2023-04-24T21:44:25.909Z,8.86
2023-04-24T21:46:57.381Z,8.86
2023-04-24T21:49:29.304Z,8.81
2023-04-24T21:52:00.748Z,8.78
2023-04-24T21:54:32.551Z,8.75
2023-04-24T21:57:04.465Z,8.76
2023-04-24T21:59:35.917Z,8.84
2023-04-24T22:02:07.549Z,8.82
2023-04-24T22:04:39.115Z,8.82
2023-04-24T22:07:11.114Z,8.80
2023-04-24T22:09:42.576Z,8.71
2023-04-24T22:12:14.265Z,8.65
2023-04-24T22:14:45.707Z,8.60
2023-04-24T22:17:17.369Z,8.64
2023-04-24T22:19:48.841Z,8.60
2023-04-24T22:22:20.653Z,8.53
2023-04-24T22:24:52.100Z,8.51
2023-04-24T22:27:23.886Z,8.49
2023-04-24T22:29:55.472Z,8.42
2023-04-24T22:32:27.290Z,8.43
2023-04-24T22:34:58.747Z,8.37
2023-04-24T22:37:30.555Z,8.36
2023-04-24T22:40:02.015Z,8.40
2023-04-24T22:42:33.817Z,8.34
2023-04-24T22:45:05.266Z,8.27
2023-04-24T22:47:37.061Z,8.22
2023-04-24T22:50:08.547Z,8.27
2023-04-24T22:52:40.330Z,8.29
2023-04-24T22:55:11.793Z,8.25
2023-04-24T22:57:43.229Z,8.29
2023-04-24T23:00:14.674Z,8.45
2023-04-24T23:02:46.477Z,8.44
2023-04-24T23:05:18.059Z,8.48
2023-04-24T23:07:49.526Z,8.52
2023-04-24T23:10:21.268Z,8.54
2023-04-24T23:12:52.709Z,8.57
2023-04-24T23:15:24.579Z,8.64
2023-04-24T23:17:56.115Z,8.59
2023-04-24T23:20:28.042Z,8.56
2023-04-24T23:22:59.705Z,8.58
2023-04-24T23:25:31.448Z,8.53
2023-04-24T23:28:02.928Z,8.58
2023-04-24T23:30:34.738Z,8.57
2023-04-24T23:33:06.301Z,8.53
2023-04-24T23:35:38.166Z,8.48
2023-04-24T23:38:09.586Z,8.65
2023-04-24T23:40:41.501Z,8.56
2023-04-24T23:43:13.025Z,8.53
2023-04-24T23:45:45.038Z,8.43
2023-04-24T23:48:16.512Z,8.43
2023-04-24T23:50:48.210Z,8.44
2023-04-24T23:53:19.656Z,8.36
2023-04-24T23:55:51.113Z,8.32
2023-04-24T23:58:22.578Z,8.28
